createdAt,value
2022-08-19T00:01:53.391Z,101029.84
2022-08-19T00:04:25.406Z,101024.09
2022-08-19T00:06:54.237Z,101030.09
2022-08-19T00:09:23.649Z,101017.53
2022-08-19T00:11:52.155Z,101012.66
2022-08-19T00:14:22.902Z,101016.06
2022-08-19T00:16:52.513Z,101012.97
2022-08-19T00:19:20.575Z,101013.69
2022-08-19T00:21:48.831Z,101008.13
2022-08-19T00:24:17.424Z,100998.44
2022-08-19T00:26:46.176Z,101012.00
2022-08-19T00:29:15.587Z,101007.09
2022-08-19T00:31:45.555Z,101011.31
2022-08-19T00:34:14.090Z,101001.97
2022-08-19T00:36:42.424Z,101008.75
2022-08-19T00:39:11.078Z,101012.53
2022-08-19T00:41:39.057Z,101008.13
2022-08-19T00:44:10.050Z,101015.66
2022-08-19T00:46:40.163Z,101020.38
2022-08-19T00:49:13.464Z,101006.78
2022-08-19T00:51:41.448Z,100997.09
2022-08-19T00:54:10.173Z,101012.84
2022-08-19T00:56:38.513Z,101000.81
2022-08-19T00:59:10.027Z,101017.09
2022-08-19T01:01:38.412Z,101021.72
2022-08-19T01:04:06.403Z,101017.03
2022-08-19T01:06:36.161Z,101007.75
2022-08-19T01:09:04.255Z,101009.75
2022-08-19T01:11:32.461Z,101004.75
2022-08-19T01:14:01.023Z,101002.66
2022-08-19T01:16:31.152Z,100994.88
2022-08-19T01:18:59.124Z,100982.94
2022-08-19T01:21:30.826Z,100983.47
2022-08-19T01:24:00.263Z,100989.38
2022-08-19T01:26:29.169Z,100972.72
2022-08-19T01:29:02.100Z,100975.09
2022-08-19T01:31:33.457Z,100981.63
2022-08-19T01:34:02.590Z,100983.97
2022-08-19T01:36:33.209Z,100978.41
2022-08-19T01:39:04.174Z,100975.03
2022-08-19T01:41:32.142Z,100971.38
2022-08-19T01:44:03.257Z,100967.97
2022-08-19T01:46:48.210Z,100980.16
2022-08-19T01:49:17.751Z,100973.13
2022-08-19T01:51:45.716Z,100969.66
2022-08-19T01:54:23.090Z,100964.66
2022-08-19T01:57:00.584Z,100963.84
2022-08-19T01:59:30.192Z,100966.75
2022-08-19T02:01:58.423Z,100978.16
2022-08-19T02:04:27.228Z,100975.53
2022-08-19T02:06:55.228Z,100982.94
2022-08-19T02:09:24.595Z,100965.34
2022-08-19T02:11:52.578Z,100965.41
2022-08-19T02:14:20.647Z,100969.13
2022-08-19T02:16:48.838Z,100962.28
2022-08-19T02:19:16.985Z,100956.16
2022-08-19T02:21:45.480Z,100948.22
2022-08-19T02:24:13.991Z,100956.84
2022-08-19T02:26:43.362Z,100960.53
2022-08-19T02:29:11.351Z,100960.59
2022-08-19T02:31:39.446Z,100953.88
2022-08-19T02:34:07.459Z,100946.13
2022-08-19T02:36:36.646Z,100947.72
2022-08-19T02:39:09.708Z,100947.31
2022-08-19T02:41:37.715Z,100938.47
2022-08-19T02:44:28.920Z,100937.91
2022-08-19T02:46:56.482Z,100938.53
2022-08-19T02:49:24.665Z,100926.94
2022-08-19T02:51:53.163Z,100931.41
2022-08-19T02:54:21.240Z,100926.88
2022-08-19T02:56:49.434Z,100913.00
2022-08-19T02:59:21.136Z,100913.63
2022-08-19T03:01:51.084Z,100934.66
2022-08-19T03:04:20.287Z,100937.00
2022-08-19T03:06:49.207Z,100943.06
2022-08-19T03:09:18.539Z,100936.66
2022-08-19T03:11:46.654Z,100927.81
2022-08-19T03:14:19.158Z,100938.16
2022-08-19T03:16:49.752Z,100948.66
2022-08-19T03:19:19.404Z,100949.94
2022-08-19T03:21:47.741Z,100962.13
2022-08-19T03:24:16.299Z,100960.00
2022-08-19T03:26:46.135Z,100956.81
2022-08-19T03:29:14.712Z,100949.88
2022-08-19T03:31:55.830Z,100969.25
2022-08-19T03:34:27.448Z,100964.13
2022-08-19T03:36:55.934Z,100964.25
2022-08-19T03:39:24.984Z,100969.75
2022-08-19T03:42:33.187Z,100971.56
2022-08-19T03:44:43.353Z,100979.81
2022-08-19T03:47:17.169Z,100987.06
2022-08-19T03:49:45.170Z,100986.53
2022-08-19T03:52:13.678Z,100996.47
2022-08-19T03:54:41.686Z,100992.72
2022-08-19T03:57:10.077Z,100991.38
2022-08-19T03:59:39.470Z,100998.72
2022-08-19T04:02:10.925Z,100992.31
2022-08-19T04:04:41.170Z,100994.09
2022-08-19T04:07:09.362Z,100983.44
2022-08-19T04:09:38.374Z,100989.94
2022-08-19T04:12:07.674Z,100984.81
2022-08-19T04:14:36.550Z,100979.97
2022-08-19T04:17:06.537Z,100971.78
2022-08-19T04:19:35.061Z,100981.72
2022-08-19T04:22:04.962Z,100981.59
2022-08-19T04:24:33.258Z,100971.56
2022-08-19T04:27:01.930Z,100979.41
2022-08-19T04:29:30.508Z,100977.69
2022-08-19T04:31:59.558Z,100980.56
2022-08-19T04:34:29.660Z,100989.44
2022-08-19T04:36:59.560Z,100989.84
2022-08-19T04:39:45.206Z,100990.19
2022-08-19T04:42:31.186Z,100991.22
2022-08-19T04:44:59.709Z,100988.44
2022-08-19T04:47:48.178Z,101001.25
2022-08-19T04:50:17.428Z,101003.09
2022-08-19T04:52:45.384Z,100993.97
2022-08-19T04:55:15.518Z,101006.50
2022-08-19T04:57:43.585Z,101012.56
2022-08-19T05:00:13.119Z,101014.69
2022-08-19T05:02:41.570Z,101016.44
2022-08-19T05:05:10.215Z,101010.00
2022-08-19T05:07:38.462Z,101003.94
2022-08-19T05:10:08.114Z,101017.81
2022-08-19T05:12:37.861Z,101017.91
2022-08-19T05:15:09.597Z,101019.09
2022-08-19T05:17:38.957Z,101022.91
2022-08-19T05:20:26.903Z,101016.72
2022-08-19T05:22:55.217Z,101024.91
2022-08-19T05:25:25.683Z,101017.56
2022-08-19T05:27:55.126Z,101018.22
2022-08-19T05:30:33.517Z,101020.44
2022-08-19T05:33:12.882Z,101024.59
2022-08-19T05:35:42.118Z,101031.28
2022-08-19T05:38:11.911Z,101029.16
2022-08-19T05:40:40.666Z,101032.97
2022-08-19T05:43:10.491Z,101027.50
2022-08-19T05:45:41.472Z,101036.13
2022-08-19T05:48:12.103Z,101035.25
2022-08-19T05:50:41.040Z,101031.56
2022-08-19T05:53:10.382Z,101028.16
2022-08-19T05:55:39.570Z,101019.34
2022-08-19T05:58:09.382Z,101022.72
2022-08-19T06:00:37.523Z,101027.53
2022-08-19T06:03:09.704Z,101017.31
2022-08-19T06:05:50.197Z,101011.31
2022-08-19T06:08:33.660Z,101017.81
2022-08-19T06:11:15.434Z,101021.13
2022-08-19T06:13:46.177Z,101032.97
2022-08-19T06:16:14.180Z,101021.94
2022-08-19T06:18:42.201Z,101025.22
2022-08-19T06:21:10.284Z,101027.63
2022-08-19T06:23:38.266Z,101017.56
2022-08-19T06:26:06.498Z,101027.69
2022-08-19T06:28:35.043Z,101029.84
2022-08-19T06:31:09.656Z,101034.66
2022-08-19T06:33:38.327Z,101036.84
2022-08-19T06:36:07.195Z,101028.69
2022-08-19T06:38:35.561Z,101024.44
2022-08-19T06:41:07.361Z,101034.13
2022-08-19T06:43:37.181Z,101028.94
2022-08-19T06:46:16.054Z,101023.59
2022-08-19T06:48:45.251Z,101030.28
2022-08-19T06:51:16.637Z,101037.44
2022-08-19T06:53:48.241Z,101037.06
2022-08-19T06:56:17.651Z,101034.00
2022-08-19T06:58:45.901Z,101028.69
2022-08-19T07:01:15.377Z,101047.84
2022-08-19T07:03:43.438Z,101043.53
2022-08-19T07:06:43.332Z,101034.13
2022-08-19T07:09:07.416Z,101038.94
2022-08-19T07:11:40.451Z,101043.09
2022-08-19T07:14:16.627Z,101036.13
2022-08-19T07:16:51.171Z,101050.16
2022-08-19T07:19:25.466Z,101050.94
2022-08-19T07:21:54.056Z,101053.09
2022-08-19T07:24:24.853Z,101046.69
2022-08-19T07:26:54.628Z,101049.00
2022-08-19T07:29:28.589Z,101046.84
2022-08-19T07:32:00.129Z,101063.22
2022-08-19T07:34:30.228Z,101067.09
2022-08-19T07:36:58.716Z,101068.47
2022-08-19T07:39:29.131Z,101068.56
2022-08-19T07:41:58.704Z,101086.97
2022-08-19T07:44:27.559Z,101077.78
2022-08-19T07:46:58.706Z,101086.47
2022-08-19T07:49:26.793Z,101091.16
2022-08-19T07:51:56.981Z,101094.09
2022-08-19T07:54:26.316Z,101088.47
2022-08-19T07:56:54.302Z,101098.53
2022-08-19T07:59:23.306Z,101100.34
2022-08-19T08:01:56.510Z,101104.00
2022-08-19T08:04:43.318Z,101108.66
2022-08-19T08:07:25.160Z,101107.47
2022-08-19T08:10:00.596Z,101112.75
2022-08-19T08:12:35.451Z,101110.44
2022-08-19T08:15:08.385Z,101104.47
2022-08-19T08:17:49.541Z,101112.38
2022-08-19T08:20:23.998Z,101116.59
2022-08-19T08:23:09.840Z,101116.81
2022-08-19T08:25:38.998Z,101122.06
2022-08-19T08:28:11.326Z,101121.59
2022-08-19T08:30:45.127Z,101130.81
2022-08-19T08:33:13.704Z,101133.25
2022-08-19T08:35:44.020Z,101128.88
2022-08-19T08:38:12.204Z,101126.41
2022-08-19T08:40:44.908Z,101133.41
2022-08-19T08:43:22.354Z,101130.88
2022-08-19T08:45:55.317Z,101124.31
2022-08-19T08:48:27.563Z,101123.63
2022-08-19T08:50:58.711Z,101115.16
2022-08-19T08:53:32.532Z,101109.69
2022-08-19T08:56:05.770Z,101126.44
2022-08-19T08:58:43.225Z,101127.47
2022-08-19T09:01:12.334Z,101123.06
2022-08-19T09:03:41.436Z,101121.06
2022-08-19T09:06:17.518Z,101122.78
2022-08-19T09:08:51.462Z,101125.38
2022-08-19T09:11:42.431Z,101133.50
2022-08-19T09:14:47.422Z,101118.22
2022-08-19T09:17:09.732Z,101118.09
2022-08-19T09:19:38.372Z,101123.97
2022-08-19T09:22:09.955Z,101116.53
2022-08-19T09:24:42.366Z,101114.56
2022-08-19T09:27:18.247Z,101107.41
2022-08-19T09:29:52.731Z,101098.03
2022-08-19T09:32:26.834Z,101105.88
2022-08-19T09:34:55.752Z,101096.91
2022-08-19T09:37:26.022Z,101088.66
2022-08-19T09:39:55.977Z,101091.84
2022-08-19T09:42:30.479Z,101102.44
2022-08-19T09:45:05.115Z,101091.53
2022-08-19T09:47:40.569Z,101087.25
2022-08-19T09:50:10.759Z,101092.50
2022-08-19T09:52:40.334Z,101103.84
2022-08-19T09:55:22.343Z,101111.19
2022-08-19T09:57:52.304Z,101114.81
2022-08-19T10:00:21.679Z,101119.53
2022-08-19T10:02:49.871Z,101113.16
2022-08-19T10:05:42.383Z,101115.50
2022-08-19T10:08:15.867Z,101112.56
2022-08-19T10:10:46.203Z,101107.06
2022-08-19T10:13:16.603Z,101112.63
2022-08-19T10:15:49.523Z,101113.84
2022-08-19T10:18:19.056Z,101121.28
2022-08-19T10:20:51.355Z,101114.00
2022-08-19T10:23:23.089Z,101104.50
2022-08-19T10:25:54.595Z,101108.34
2022-08-19T10:28:24.059Z,101102.03
2022-08-19T10:30:54.451Z,101106.41
2022-08-19T10:33:38.769Z,101101.75
2022-08-19T10:36:16.147Z,101096.03
2022-08-19T10:38:52.307Z,101095.66
2022-08-19T10:41:25.839Z,101111.19
2022-08-19T10:43:55.467Z,101097.00
2022-08-19T10:46:25.772Z,101104.13
2022-08-19T10:48:54.037Z,101095.50
2022-08-19T10:51:51.167Z,101086.91
2022-08-19T10:54:31.257Z,101091.44
2022-08-19T10:57:00.441Z,101097.16
2022-08-19T10:59:35.859Z,101095.78
2022-08-19T11:02:06.192Z,101099.47
2022-08-19T11:04:35.785Z,101099.66
2022-08-19T11:07:04.882Z,101098.88
2022-08-19T11:09:39.880Z,101105.69
2022-08-19T11:12:09.121Z,101105.25
2022-08-19T11:14:37.437Z,101105.13
2022-08-19T11:17:06.734Z,101112.19
2022-08-19T11:19:35.300Z,101110.47
2022-08-19T11:22:04.028Z,101106.03
2022-08-19T11:24:32.621Z,101112.97
2022-08-19T11:27:06.039Z,101110.63
2022-08-19T11:29:35.457Z,101111.28
2022-08-19T11:32:06.663Z,101094.84
2022-08-19T11:34:36.420Z,101098.53
2022-08-19T11:37:05.101Z,101097.78
2022-08-19T11:39:34.365Z,101101.25
2022-08-19T11:42:24.465Z,101090.66
2022-08-19T11:44:52.640Z,101092.31
2022-08-19T11:47:21.183Z,101099.03
2022-08-19T11:49:49.338Z,101093.16
2022-08-19T11:52:17.437Z,101090.84
2022-08-19T11:54:45.480Z,101091.69
2022-08-19T11:57:17.767Z,101094.00
2022-08-19T11:59:50.645Z,101093.66
2022-08-19T12:02:18.639Z,101100.78
2022-08-19T12:04:46.681Z,101098.94
2022-08-19T12:07:15.350Z,101099.66
2022-08-19T12:09:43.792Z,101095.66
2022-08-19T12:12:15.434Z,101101.66
2022-08-19T12:14:43.642Z,101111.31
2022-08-19T12:17:12.474Z,101091.66
2022-08-19T12:19:41.983Z,101095.63
2022-08-19T12:22:09.996Z,101093.78
2022-08-19T12:24:37.990Z,101087.63
2022-08-19T12:27:06.152Z,101091.00
2022-08-19T12:29:39.456Z,101082.16
2022-08-19T12:32:07.414Z,101093.56
2022-08-19T12:34:38.888Z,101098.34
2022-08-19T12:37:08.164Z,101093.44
2022-08-19T12:39:37.993Z,101084.41
2022-08-19T12:42:06.639Z,101091.78
2022-08-19T12:44:34.810Z,101092.19
2022-08-19T12:47:06.152Z,101093.69
2022-08-19T12:49:52.740Z,101087.31
2022-08-19T12:52:23.511Z,101077.75
2022-08-19T12:54:54.678Z,101077.94
2022-08-19T12:57:23.768Z,101077.00
2022-08-19T12:59:59.854Z,101079.03
2022-08-19T13:02:29.313Z,101075.16
2022-08-19T13:04:57.912Z,101070.91
2022-08-19T13:07:26.174Z,101082.81
2022-08-19T13:09:54.440Z,101074.97
2022-08-19T13:12:25.660Z,101074.53
2022-08-19T13:14:53.983Z,101071.34
2022-08-19T13:17:22.227Z,101068.16
2022-08-19T13:19:51.823Z,101069.84
2022-08-19T13:22:20.054Z,101074.13
2022-08-19T13:24:48.088Z,101063.47
2022-08-19T13:27:16.403Z,101082.19
2022-08-19T13:30:02.254Z,101075.34
2022-08-19T13:32:49.044Z,101081.75
2022-08-19T13:35:19.598Z,101074.75
2022-08-19T13:37:47.649Z,101076.25
2022-08-19T13:40:19.905Z,101074.97
2022-08-19T13:42:50.302Z,101069.22
2022-08-19T13:45:20.737Z,101064.97
2022-08-19T13:47:57.130Z,101052.59
2022-08-19T13:50:30.115Z,101056.84
2022-08-19T13:52:58.459Z,101054.72
2022-08-19T13:55:27.886Z,101049.94
2022-08-19T13:57:57.523Z,101052.69
2022-08-19T14:00:48.365Z,101054.44
2022-08-19T14:03:17.436Z,101045.34
2022-08-19T14:06:00.081Z,101058.53
2022-08-19T14:08:29.675Z,101048.47
2022-08-19T14:10:57.859Z,101060.84
2022-08-19T14:13:26.174Z,101055.16
2022-08-19T14:15:54.722Z,101045.78
2022-08-19T14:18:23.194Z,101051.66
2022-08-19T14:20:58.891Z,101040.81
2022-08-19T14:23:27.048Z,101035.03
2022-08-19T14:26:00.781Z,101044.84
2022-08-19T14:28:42.565Z,101047.34
2022-08-19T14:31:10.751Z,101049.25
2022-08-19T14:33:39.464Z,101041.16
2022-08-19T14:36:12.501Z,101040.09
2022-08-19T14:38:40.964Z,101044.81
2022-08-19T14:41:11.417Z,101035.25
2022-08-19T14:43:41.733Z,101049.47
2022-08-19T14:46:18.518Z,101051.00
2022-08-19T14:49:35.017Z,101045.72
2022-08-19T14:52:06.872Z,101049.38
2022-08-19T14:54:35.596Z,101040.03
2022-08-19T14:57:13.415Z,101052.38
2022-08-19T14:59:41.491Z,101034.66
2022-08-19T15:02:33.673Z,101053.97
2022-08-19T15:05:03.190Z,101050.38
2022-08-19T15:07:40.510Z,101048.84
2022-08-19T15:10:13.285Z,101054.63
2022-08-19T15:15:42.927Z,101058.09
2022-08-19T15:18:12.690Z,101059.22
2022-08-19T15:20:42.106Z,101051.19
2022-08-19T15:23:13.140Z,101055.31
2022-08-19T15:25:42.600Z,101060.56
2022-08-19T15:28:12.210Z,101061.16
2022-08-19T15:30:41.967Z,101071.72
2022-08-19T15:33:10.547Z,101075.09
2022-08-19T15:35:40.903Z,101070.13
2022-08-19T15:38:19.366Z,101067.81
2022-08-19T15:40:48.928Z,101078.00
2022-08-19T15:43:25.461Z,101083.94
2022-08-19T15:45:58.072Z,101076.53
2022-08-19T15:48:33.088Z,101079.91
2022-08-19T15:51:01.222Z,101067.50
2022-08-19T15:54:09.823Z,101088.84
2022-08-19T15:57:12.144Z,101078.38
2022-08-19T15:59:59.985Z,101074.94
2022-08-19T16:02:59.556Z,101077.66
2022-08-19T16:05:46.393Z,101075.22
2022-08-19T16:08:23.794Z,101066.38
2022-08-19T16:11:19.949Z,101072.50
2022-08-19T16:13:51.985Z,101062.22
2022-08-19T16:16:20.233Z,101065.47
2022-08-19T16:18:57.541Z,101068.00
2022-08-19T16:21:33.473Z,101065.38
2022-08-19T16:24:05.667Z,101062.06
2022-08-19T16:26:34.957Z,101069.78
2022-08-19T16:29:08.997Z,101061.41
2022-08-19T16:31:44.124Z,101061.66
2022-08-19T16:34:24.666Z,101062.00
2022-08-19T16:36:55.949Z,101064.06
2022-08-19T16:39:25.487Z,101076.63
2022-08-19T16:41:54.185Z,101058.97
2022-08-19T16:44:30.565Z,101060.25
2022-08-19T16:46:59.763Z,101077.88
2022-08-19T16:49:53.027Z,101078.94
2022-08-19T16:52:18.554Z,101067.97
2022-08-19T16:54:47.218Z,101070.78
2022-08-19T16:57:16.091Z,101057.00
2022-08-19T16:59:48.838Z,101062.56
2022-08-19T17:02:29.667Z,101051.63
2022-08-19T17:05:03.196Z,101059.59
2022-08-19T17:07:33.632Z,101062.28
2022-08-19T17:10:02.891Z,101064.41
2022-08-19T17:12:41.687Z,101062.41
2022-08-19T17:15:15.528Z,101072.34
2022-08-19T17:17:48.719Z,101075.00
2022-08-19T17:20:17.359Z,101071.09
2022-08-19T17:22:45.862Z,101067.94
2022-08-19T17:25:14.114Z,101069.75
2022-08-19T17:27:42.520Z,101071.69
2022-08-19T17:30:32.042Z,101062.84
2022-08-19T17:33:09.360Z,101069.09
2022-08-19T17:35:37.804Z,101064.28
2022-08-19T17:38:06.472Z,101071.16
2022-08-19T17:40:35.051Z,101062.75
2022-08-19T17:43:08.049Z,101066.25
2022-08-19T17:45:37.861Z,101064.34
2022-08-19T17:48:06.627Z,101070.50
2022-08-19T17:50:35.880Z,101070.50
2022-08-19T17:53:05.604Z,101066.94
2022-08-19T17:55:34.343Z,101058.50
2022-08-19T17:58:05.631Z,101059.13
2022-08-19T18:00:54.083Z,101074.03
2022-08-19T18:03:22.834Z,101061.44
2022-08-19T18:05:50.906Z,101066.56
2022-08-19T18:08:19.184Z,101056.34
2022-08-19T18:10:47.256Z,101060.41
2022-08-19T18:13:17.718Z,101058.28
2022-08-19T18:15:48.635Z,101053.03
2022-08-19T18:18:16.782Z,101064.09
2022-08-19T18:20:44.893Z,101056.00
2022-08-19T18:23:44.130Z,101058.78
2022-08-19T18:26:01.038Z,101057.69
2022-08-19T18:28:29.169Z,101056.44
2022-08-19T18:30:59.264Z,101050.63
2022-08-19T18:33:27.281Z,101054.72
2022-08-19T18:35:55.348Z,101050.91
2022-08-19T18:38:41.401Z,101056.00
2022-08-19T18:41:27.554Z,101057.31
2022-08-19T18:44:13.306Z,101056.47
2022-08-19T18:47:00.340Z,101054.53
2022-08-19T18:49:30.199Z,101059.22
2022-08-19T18:52:03.208Z,101053.47
2022-08-19T18:54:31.480Z,101059.44
2022-08-19T18:56:59.999Z,101056.22
2022-08-19T18:59:29.570Z,101057.66
2022-08-19T19:02:00.477Z,101055.41
2022-08-19T19:04:30.894Z,101058.38
2022-08-19T19:07:00.125Z,101052.19
2022-08-19T19:09:28.376Z,101062.19
2022-08-19T19:11:57.958Z,101066.84
2022-08-19T19:14:48.215Z,101062.50
2022-08-19T19:17:22.936Z,101056.81
2022-08-19T19:19:50.945Z,101059.97
2022-08-19T19:22:20.750Z,101063.34
2022-08-19T19:24:49.086Z,101050.97
2022-08-19T19:27:20.413Z,101068.38
2022-08-19T19:29:52.038Z,101061.19
2022-08-19T19:32:23.937Z,101072.75
2022-08-19T19:34:52.106Z,101071.16
2022-08-19T19:37:20.140Z,101073.75
2022-08-19T19:39:48.594Z,101077.69
2022-08-19T19:42:20.002Z,101071.88
2022-08-19T19:44:50.589Z,101073.78
2022-08-19T19:47:19.345Z,101079.28
2022-08-19T19:52:39.482Z,101074.91
2022-08-19T19:55:09.287Z,101082.72
2022-08-19T19:57:39.739Z,101079.09
2022-08-19T20:00:09.956Z,101085.66
2022-08-19T20:02:39.008Z,101093.50
2022-08-19T20:05:09.373Z,101091.41
2022-08-19T20:07:54.961Z,101093.31
2022-08-19T20:10:23.238Z,101107.19
2022-08-19T20:12:52.569Z,101102.03
2022-08-19T20:15:20.557Z,101095.84
2022-08-19T20:17:48.600Z,101101.81
2022-08-19T20:20:19.184Z,101099.00
2022-08-19T20:22:48.561Z,101100.28
2022-08-19T20:25:17.795Z,101108.88
2022-08-19T20:27:50.742Z,101108.28
2022-08-19T20:30:20.512Z,101110.06
2022-08-19T20:32:49.079Z,101119.91
2022-08-19T20:35:21.053Z,101113.03
2022-08-19T20:37:52.864Z,101123.66
2022-08-19T20:40:24.090Z,101120.41
2022-08-19T20:42:52.170Z,101123.91
2022-08-19T20:45:32.609Z,101128.50
2022-08-19T20:48:02.799Z,101123.72
2022-08-19T20:50:33.101Z,101124.25
2022-08-19T20:53:03.205Z,101122.78
2022-08-19T20:55:31.468Z,101126.44
2022-08-19T20:58:01.748Z,101108.50
2022-08-19T21:00:30.756Z,101116.38
2022-08-19T21:02:58.859Z,101112.22
2022-08-19T21:05:30.461Z,101113.75
2022-08-19T21:08:00.290Z,101119.75
2022-08-19T21:10:28.338Z,101124.63
2022-08-19T21:12:56.587Z,101124.28
2022-08-19T21:15:27.138Z,101120.94
2022-08-19T21:17:55.359Z,101121.09
2022-08-19T21:20:23.512Z,101125.31
2022-08-19T21:22:52.624Z,101120.97
2022-08-19T21:25:22.008Z,101132.13
2022-08-19T21:27:49.983Z,101114.09
2022-08-19T21:30:18.040Z,101113.81
2022-08-19T21:32:50.478Z,101122.16
2022-08-19T21:35:20.711Z,101115.41
2022-08-19T21:37:48.770Z,101117.75
2022-08-19T21:40:17.793Z,101113.91
2022-08-19T21:42:47.404Z,101108.78
2022-08-19T21:45:17.494Z,101114.44
2022-08-19T21:47:45.951Z,101116.88
2022-08-19T21:50:14.189Z,101136.53
2022-08-19T21:52:42.454Z,101130.06
2022-08-19T21:55:11.591Z,101131.81
2022-08-19T21:57:41.418Z,101129.16
2022-08-19T22:00:17.170Z,101123.16
2022-08-19T22:02:46.934Z,101121.25
2022-08-19T22:05:15.193Z,101127.56
2022-08-19T22:07:43.886Z,101125.72
2022-08-19T22:10:12.246Z,101130.81
2022-08-19T22:12:47.291Z,101138.03
2022-08-19T22:15:21.711Z,101127.94
2022-08-19T22:17:49.980Z,101127.16
2022-08-19T22:20:20.578Z,101125.22
2022-08-19T22:22:49.849Z,101127.56
2022-08-19T22:25:29.119Z,101132.50
2022-08-19T22:28:00.587Z,101130.06
2022-08-19T22:30:33.468Z,101130.47
2022-08-19T22:33:04.183Z,101123.19
2022-08-19T22:35:34.640Z,101125.94
2022-08-19T22:38:06.574Z,101131.31
2022-08-19T22:40:37.016Z,101136.19
2022-08-19T22:43:07.662Z,101139.97
2022-08-19T22:45:37.428Z,101139.84
2022-08-19T22:48:07.916Z,101142.22
2022-08-19T22:50:35.955Z,101142.25
2022-08-19T22:53:03.914Z,101151.81
2022-08-19T22:55:32.314Z,101143.59
2022-08-19T22:58:00.337Z,101145.34
2022-08-19T23:00:29.702Z,101141.34
2022-08-19T23:02:59.658Z,101138.69
2022-08-19T23:05:29.306Z,101145.16
2022-08-19T23:07:58.517Z,101145.34
2022-08-19T23:10:29.193Z,101141.22
2022-08-19T23:12:59.241Z,101152.63
2022-08-19T23:15:30.908Z,101141.16
2022-08-19T23:18:01.945Z,101144.13
2022-08-19T23:20:33.018Z,101149.25
2022-08-19T23:23:03.742Z,101140.50
2022-08-19T23:25:33.175Z,101133.28
2022-08-19T23:28:18.965Z,101139.81
2022-08-19T23:30:48.628Z,101134.81
2022-08-19T23:33:24.217Z,101148.50
2022-08-19T23:35:53.525Z,101131.75
2022-08-19T23:38:22.597Z,101139.44
2022-08-19T23:40:51.675Z,101139.03
2022-08-19T23:43:24.433Z,101129.91
2022-08-19T23:45:53.737Z,101134.25
2022-08-19T23:48:28.370Z,101122.84
2022-08-19T23:50:57.167Z,101126.84
2022-08-19T23:53:25.962Z,101120.16
2022-08-19T23:55:54.237Z,101120.53
2022-08-19T23:58:23.341Z,101112.63
